sensor_id;sensor_type;location;lat;lon;timestamp;temperature;humidity
53675;DHT22;39574;50.534;8.500;2022-07-29T00:02:30;20.9;94.2
53675;DHT22;39574;50.534;8.500;2022-07-29T00:07:30;20.9;94.4
53675;DHT22;39574;50.534;8.500;2022-07-29T00:12:42;20.9;94.4
53675;DHT22;39574;50.534;8.500;2022-07-29T00:17:42;21.0;93.9
53675;DHT22;39574;50.534;8.500;2022-07-29T00:22:43;21.1;93.6
53675;DHT22;39574;50.534;8.500;2022-07-29T00:31:53;21.1;93.2
53675;DHT22;39574;50.534;8.500;2022-07-29T00:37:22;21.2;93.2
53675;DHT22;39574;50.534;8.500;2022-07-29T00:42:24;21.1;93.4
53675;DHT22;39574;50.534;8.500;2022-07-29T00:47:26;21.1;93.7
53675;DHT22;39574;50.534;8.500;2022-07-29T00:52:36;21.1;94.0
53675;DHT22;39574;50.534;8.500;2022-07-29T00:57:42;21.1;94.2
53675;DHT22;39574;50.534;8.500;2022-07-29T01:06:59;20.9;95.7
53675;DHT22;39574;50.534;8.500;2022-07-29T01:12:05;20.9;97.6
53675;DHT22;39574;50.534;8.500;2022-07-29T01:17:08;20.7;99.0
53675;DHT22;39574;50.534;8.500;2022-07-29T01:22:37;20.5;99.7
53675;DHT22;39574;50.534;8.500;2022-07-29T01:32:05;20.3;99.9
53675;DHT22;39574;50.534;8.500;2022-07-29T01:37:18;19.9;99.9
53675;DHT22;39574;50.534;8.500;2022-07-29T01:42:22;19.6;99.9
53675;DHT22;39574;50.534;8.500;2022-07-29T01:47:31;19.5;99.9
53675;DHT22;39574;50.534;8.500;2022-07-29T01:52:36;19.4;99.9
53675;DHT22;39574;50.534;8.500;2022-07-29T02:02:02;19.1;99.9
53675;DHT22;39574;50.534;8.500;2022-07-29T02:07:15;18.7;99.9
53675;DHT22;39574;50.534;8.500;2022-07-29T02:12:27;18.3;99.9
53675;DHT22;39574;50.534;8.500;2022-07-29T02:17:29;18.2;99.9
53675;DHT22;39574;50.534;8.500;2022-07-29T02:22:31;18.2;99.9
53675;DHT22;39574;50.534;8.500;2022-07-29T02:31:57;18.1;99.9
53675;DHT22;39574;50.534;8.500;2022-07-29T02:37:08;18.0;99.9
53675;DHT22;39574;50.534;8.500;2022-07-29T02:42:23;17.8;99.9
53675;DHT22;39574;50.534;8.500;2022-07-29T02:51:53;17.7;99.9
53675;DHT22;39574;50.534;8.500;2022-07-29T02:57:09;17.7;99.9
53675;DHT22;39574;50.534;8.500;2022-07-29T03:02:11;17.8;99.9
53675;DHT22;39574;50.534;8.500;2022-07-29T03:07:21;18.0;99.9
53675;DHT22;39574;50.534;8.500;2022-07-29T03:12:22;18.0;99.9
53675;DHT22;39574;50.534;8.500;2022-07-29T03:17:22;17.9;99.9
53675;DHT22;39574;50.534;8.500;2022-07-29T03:26:47;17.7;99.9
53675;DHT22;39574;50.534;8.500;2022-07-29T03:31:52;17.6;99.9
53675;DHT22;39574;50.534;8.500;2022-07-29T03:37:06;17.6;99.9
53675;DHT22;39574;50.534;8.500;2022-07-29T03:42:16;17.4;99.9
53675;DHT22;39574;50.534;8.500;2022-07-29T03:47:20;17.3;99.9
53675;DHT22;39574;50.534;8.500;2022-07-29T03:56:26;17.4;99.9
53675;DHT22;39574;50.534;8.500;2022-07-29T04:02:00;17.6;99.9
53675;DHT22;39574;50.534;8.500;2022-07-29T04:07:11;17.6;99.9
53675;DHT22;39574;50.534;8.500;2022-07-29T04:16:25;17.6;99.9
53675;DHT22;39574;50.534;8.500;2022-07-29T04:21:41;17.6;99.9
53675;DHT22;39574;50.534;8.500;2022-07-29T04:26:59;17.6;99.9
53675;DHT22;39574;50.534;8.500;2022-07-29T04:32:11;17.7;99.9
53675;DHT22;39574;50.534;8.500;2022-07-29T04:41:48;17.4;99.9
53675;DHT22;39574;50.534;8.500;2022-07-29T04:46:51;17.3;99.9
53675;DHT22;39574;50.534;8.500;2022-07-29T04:51:53;17.4;99.9
53675;DHT22;39574;50.534;8.500;2022-07-29T04:57:08;17.5;99.9
53675;DHT22;39574;50.534;8.500;2022-07-29T05:02:08;17.7;99.9
53675;DHT22;39574;50.534;8.500;2022-07-29T05:11:34;17.8;99.9
53675;DHT22;39574;50.534;8.500;2022-07-29T05:16:34;17.7;99.9
53675;DHT22;39574;50.534;8.500;2022-07-29T05:21:35;17.5;99.9
53675;DHT22;39574;50.534;8.500;2022-07-29T05:26:48;17.2;99.9
53675;DHT22;39574;50.534;8.500;2022-07-29T05:32:02;17.1;99.9
53675;DHT22;39574;50.534;8.500;2022-07-29T05:37:02;17.1;99.9
53675;DHT22;39574;50.534;8.500;2022-07-29T05:46:14;17.3;99.9
53675;DHT22;39574;50.534;8.500;2022-07-29T05:51:40;17.6;99.9
53675;DHT22;39574;50.534;8.500;2022-07-29T05:56:54;17.9;99.9
53675;DHT22;39574;50.534;8.500;2022-07-29T06:01:55;18.1;99.9
53675;DHT22;39574;50.534;8.500;2022-07-29T06:06:57;18.3;99.9
53675;DHT22;39574;50.534;8.500;2022-07-29T06:16:42;18.7;99.9
53675;DHT22;39574;50.534;8.500;2022-07-29T06:21:52;18.9;99.9
53675;DHT22;39574;50.534;8.500;2022-07-29T06:31:42;19.1;99.9
53675;DHT22;39574;50.534;8.500;2022-07-29T06:36:53;19.3;99.9
53675;DHT22;39574;50.534;8.500;2022-07-29T06:46:34;19.6;99.9
53675;DHT22;39574;50.534;8.500;2022-07-29T06:51:36;20.1;99.9
53675;DHT22;39574;50.534;8.500;2022-07-29T06:56:49;20.4;99.9
53675;DHT22;39574;50.534;8.500;2022-07-29T07:01:51;20.6;99.9
53675;DHT22;39574;50.534;8.500;2022-07-29T07:06:53;20.9;99.9
53675;DHT22;39574;50.534;8.500;2022-07-29T07:16:32;21.2;99.9
53675;DHT22;39574;50.534;8.500;2022-07-29T07:21:46;21.3;99.9
53675;DHT22;39574;50.534;8.500;2022-07-29T07:31:19;21.5;99.9
53675;DHT22;39574;50.534;8.500;2022-07-29T07:36:29;21.6;99.9
53675;DHT22;39574;50.534;8.500;2022-07-29T07:41:44;21.7;99.9
53675;DHT22;39574;50.534;8.500;2022-07-29T07:51:12;22.1;99.9
53675;DHT22;39574;50.534;8.500;2022-07-29T07:56:16;22.7;99.9
53675;DHT22;39574;50.534;8.500;2022-07-29T08:01:28;22.9;99.9
53675;DHT22;39574;50.534;8.500;2022-07-29T08:06:42;23.1;99.9
53675;DHT22;39574;50.534;8.500;2022-07-29T08:11:42;23.0;99.9
53675;DHT22;39574;50.534;8.500;2022-07-29T08:16:43;22.9;99.9
53675;DHT22;39574;50.534;8.500;2022-07-29T08:26:02;23.1;99.9
53675;DHT22;39574;50.534;8.500;2022-07-29T08:31:08;23.3;99.9
53675;DHT22;39574;50.534;8.500;2022-07-29T08:36:10;23.4;99.9
53675;DHT22;39574;50.534;8.500;2022-07-29T08:41:11;23.5;99.9
53675;DHT22;39574;50.534;8.500;2022-07-29T08:46:24;23.6;99.9
53675;DHT22;39574;50.534;8.500;2022-07-29T08:51:38;23.8;99.9
53675;DHT22;39574;50.534;8.500;2022-07-29T08:56:40;24.0;99.9
53675;DHT22;39574;50.534;8.500;2022-07-29T09:06:08;24.1;99.9
53675;DHT22;39574;50.534;8.500;2022-07-29T09:11:11;24.2;99.9
53675;DHT22;39574;50.534;8.500;2022-07-29T09:16:24;24.4;99.9
53675;DHT22;39574;50.534;8.500;2022-07-29T09:21:40;24.7;99.9
53675;DHT22;39574;50.534;8.500;2022-07-29T09:26:40;25.1;99.9
53675;DHT22;39574;50.534;8.500;2022-07-29T09:31:40;25.3;99.9
53675;DHT22;39574;50.534;8.500;2022-07-29T09:41:05;25.7;99.9
53675;DHT22;39574;50.534;8.500;2022-07-29T09:46:10;25.8;99.9
53675;DHT22;39574;50.534;8.500;2022-07-29T09:51:16;25.9;99.9
53675;DHT22;39574;50.534;8.500;2022-07-29T09:56:26;26.1;99.9
53675;DHT22;39574;50.534;8.500;2022-07-29T10:01:27;26.3;99.9
53675;DHT22;39574;50.534;8.500;2022-07-29T10:06:34;26.5;99.9
53675;DHT22;39574;50.534;8.500;2022-07-29T10:16:16;27.1;99.9
53675;DHT22;39574;50.534;8.500;2022-07-29T10:21:17;27.5;99.9
53675;DHT22;39574;50.534;8.500;2022-07-29T10:26:19;28.2;99.9
53675;DHT22;39574;50.534;8.500;2022-07-29T10:31:34;28.6;99.9
53675;DHT22;39574;50.534;8.500;2022-07-29T10:41:18;28.8;99.9
53675;DHT22;39574;50.534;8.500;2022-07-29T10:46:22;28.8;99.9
53675;DHT22;39574;50.534;8.500;2022-07-29T10:52:04;28.5;99.9
53675;DHT22;39574;50.534;8.500;2022-07-29T10:56:36;28.3;99.9
53675;DHT22;39574;50.534;8.500;2022-07-29T11:06:03;28.5;99.9
53675;DHT22;39574;50.534;8.500;2022-07-29T11:16:05;29.4;99.9
53675;DHT22;39574;50.534;8.500;2022-07-29T11:21:06;29.1;99.9
53675;DHT22;39574;50.534;8.500;2022-07-29T11:26:16;28.8;99.9
53675;DHT22;39574;50.534;8.500;2022-07-29T11:31:16;28.7;99.9
53675;DHT22;39574;50.534;8.500;2022-07-29T11:36:20;29.4;99.9
53675;DHT22;39574;50.534;8.500;2022-07-29T11:41:32;30.0;99.9
53675;DHT22;39574;50.534;8.500;2022-07-29T11:51:04;30.2;99.9
53675;DHT22;39574;50.534;8.500;2022-07-29T11:56:03;30.4;99.9
53675;DHT22;39574;50.534;8.500;2022-07-29T12:01:03;30.7;99.9
53675;DHT22;39574;50.534;8.500;2022-07-29T12:06:11;30.8;99.9
53675;DHT22;39574;50.534;8.500;2022-07-29T12:11:15;31.0;99.1
53675;DHT22;39574;50.534;8.500;2022-07-29T12:16:17;31.3;98.7
53675;DHT22;39574;50.534;8.500;2022-07-29T12:21:19;31.1;98.1
53675;DHT22;39574;50.534;8.500;2022-07-29T12:26:33;31.2;97.3
53675;DHT22;39574;50.534;8.500;2022-07-29T12:36:14;31.3;97.1
53675;DHT22;39574;50.534;8.500;2022-07-29T12:41:29;31.4;95.9
53675;DHT22;39574;50.534;8.500;2022-07-29T12:46:29;31.7;96.2
53675;DHT22;39574;50.534;8.500;2022-07-29T12:51:34;31.5;95.6
53675;DHT22;39574;50.534;8.500;2022-07-29T12:56:37;31.8;95.1
53675;DHT22;39574;50.534;8.500;2022-07-29T13:06:03;32.0;95.2
53675;DHT22;39574;50.534;8.500;2022-07-29T13:11:03;31.9;94.5
53675;DHT22;39574;50.534;8.500;2022-07-29T13:16:14;32.0;94.2
53675;DHT22;39574;50.534;8.500;2022-07-29T13:21:20;32.0;93.7
53675;DHT22;39574;50.534;8.500;2022-07-29T13:26:21;32.0;93.3
53675;DHT22;39574;50.534;8.500;2022-07-29T13:31:35;31.2;93.2
53675;DHT22;39574;50.534;8.500;2022-07-29T13:41:03;30.4;93.5
53675;DHT22;39574;50.534;8.500;2022-07-29T13:46:04;29.6;94.4
53675;DHT22;39574;50.534;8.500;2022-07-29T13:51:04;29.0;95.5
53675;DHT22;39574;50.534;8.500;2022-07-29T13:56:17;28.4;96.6
53675;DHT22;39574;50.534;8.500;2022-07-29T14:01:32;28.0;97.2
53675;DHT22;39574;50.534;8.500;2022-07-29T14:06:36;27.7;98.1
53675;DHT22;39574;50.534;8.500;2022-07-29T14:16:01;27.4;98.6
53675;DHT22;39574;50.534;8.500;2022-07-29T14:21:03;27.2;99.2
53675;DHT22;39574;50.534;8.500;2022-07-29T14:26:04;27.1;99.6
53675;DHT22;39574;50.534;8.500;2022-07-29T14:31:14;26.9;99.8
53675;DHT22;39574;50.534;8.500;2022-07-29T14:36:20;26.8;99.9
53675;DHT22;39574;50.534;8.500;2022-07-29T14:41:32;26.8;99.9
53675;DHT22;39574;50.534;8.500;2022-07-29T14:51:02;26.6;99.9
53675;DHT22;39574;50.534;8.500;2022-07-29T14:56:05;26.5;99.9
53675;DHT22;39574;50.534;8.500;2022-07-29T15:01:15;26.4;99.9
53675;DHT22;39574;50.534;8.500;2022-07-29T15:06:19;26.1;99.9
53675;DHT22;39574;50.534;8.500;2022-07-29T15:11:32;25.6;99.9
53675;DHT22;39574;50.534;8.500;2022-07-29T15:21:00;24.4;99.9
53675;DHT22;39574;50.534;8.500;2022-07-29T15:26:12;23.0;99.9
53675;DHT22;39574;50.534;8.500;2022-07-29T15:31:16;22.3;99.9
53675;DHT22;39574;50.534;8.500;2022-07-29T15:36:17;22.2;99.9
53675;DHT22;39574;50.534;8.500;2022-07-29T15:41:32;22.5;99.9
53675;DHT22;39574;50.534;8.500;2022-07-29T15:50:58;23.0;99.9
53675;DHT22;39574;50.534;8.500;2022-07-29T15:56:12;23.3;99.9
53675;DHT22;39574;50.534;8.500;2022-07-29T16:01:24;23.6;99.9
53675;DHT22;39574;50.534;8.500;2022-07-29T16:06:26;23.9;99.9
53675;DHT22;39574;50.534;8.500;2022-07-29T16:11:28;24.0;99.9
53675;DHT22;39574;50.534;8.500;2022-07-29T16:20:56;24.3;99.9
53675;DHT22;39574;50.534;8.500;2022-07-29T16:26:09;24.5;99.9
53675;DHT22;39574;50.534;8.500;2022-07-29T16:31:23;24.6;99.9
53675;DHT22;39574;50.534;8.500;2022-07-29T16:40:55;25.0;99.9
53675;DHT22;39574;50.534;8.500;2022-07-29T16:45:58;25.3;99.9
53675;DHT22;39574;50.534;8.500;2022-07-29T16:51:06;25.4;99.9
53675;DHT22;39574;50.534;8.500;2022-07-29T16:56:20;25.4;99.9
53675;DHT22;39574;50.534;8.500;2022-07-29T17:01:21;25.3;99.9
53675;DHT22;39574;50.534;8.500;2022-07-29T17:06:25;25.1;99.9
53675;DHT22;39574;50.534;8.500;2022-07-29T17:15:43;24.8;99.9
53675;DHT22;39574;50.534;8.500;2022-07-29T17:20:53;24.5;99.9
53675;DHT22;39574;50.534;8.500;2022-07-29T17:25:53;24.1;99.9
53675;DHT22;39574;50.534;8.500;2022-07-29T17:30:54;23.8;99.9
53675;DHT22;39574;50.534;8.500;2022-07-29T17:36:07;23.5;99.9
53675;DHT22;39574;50.534;8.500;2022-07-29T17:41:20;23.3;99.9
53675;DHT22;39574;50.534;8.500;2022-07-29T17:46:23;23.2;99.9
53675;DHT22;39574;50.534;8.500;2022-07-29T17:56:02;23.1;99.9
53675;DHT22;39574;50.534;8.500;2022-07-29T18:01:03;23.1;99.9
53675;DHT22;39574;50.534;8.500;2022-07-29T18:06:05;23.1;99.9
53675;DHT22;39574;50.534;8.500;2022-07-29T18:11:05;23.0;99.9
53675;DHT22;39574;50.534;8.500;2022-07-29T18:16:18;22.9;99.9
53675;DHT22;39574;50.534;8.500;2022-07-29T18:25:47;22.6;99.9
53675;DHT22;39574;50.534;8.500;2022-07-29T18:30:50;22.4;99.9
53675;DHT22;39574;50.534;8.500;2022-07-29T18:36:00;22.5;99.9
53675;DHT22;39574;50.534;8.500;2022-07-29T18:41:15;22.5;99.9
53675;DHT22;39574;50.534;8.500;2022-07-29T18:46:17;22.5;99.9
53675;DHT22;39574;50.534;8.500;2022-07-29T18:55:57;22.4;99.9
53675;DHT22;39574;50.534;8.500;2022-07-29T19:01:11;22.3;99.9
53675;DHT22;39574;50.534;8.500;2022-07-29T19:06:16;22.2;99.9
53675;DHT22;39574;50.534;8.500;2022-07-29T19:11:17;22.0;99.9
53675;DHT22;39574;50.534;8.500;2022-07-29T19:20:44;21.7;99.9
53675;DHT22;39574;50.534;8.500;2022-07-29T19:25:54;21.6;99.9
53675;DHT22;39574;50.534;8.500;2022-07-29T19:30:56;21.4;99.9
53675;DHT22;39574;50.534;8.500;2022-07-29T19:36:09;21.1;99.9
53675;DHT22;39574;50.534;8.500;2022-07-29T19:45:40;21.0;99.9
53675;DHT22;39574;50.534;8.500;2022-07-29T19:50:54;20.9;99.9
53675;DHT22;39574;50.534;8.500;2022-07-29T19:56:07;20.8;99.9
53675;DHT22;39574;50.534;8.500;2022-07-29T20:01:08;20.8;99.9
53675;DHT22;39574;50.534;8.500;2022-07-29T20:10:38;20.9;99.9
53675;DHT22;39574;50.534;8.500;2022-07-29T20:15:52;21.0;99.9
53675;DHT22;39574;50.534;8.500;2022-07-29T20:20:54;21.1;99.9
53675;DHT22;39574;50.534;8.500;2022-07-29T20:26:06;21.1;99.9
53675;DHT22;39574;50.534;8.500;2022-07-29T20:31:08;21.1;99.9
53675;DHT22;39574;50.534;8.500;2022-07-29T20:40:35;20.9;99.9
53675;DHT22;39574;50.534;8.500;2022-07-29T20:45:45;20.9;99.9
53675;DHT22;39574;50.534;8.500;2022-07-29T20:50:46;20.9;99.9
53675;DHT22;39574;50.534;8.500;2022-07-29T20:56:00;20.9;99.9
53675;DHT22;39574;50.534;8.500;2022-07-29T21:05:21;20.9;99.9
53675;DHT22;39574;50.534;8.500;2022-07-29T21:10:23;20.8;99.9
53675;DHT22;39574;50.534;8.500;2022-07-29T21:15:30;20.6;99.9
53675;DHT22;39574;50.534;8.500;2022-07-29T21:20:31;20.4;99.9
53675;DHT22;39574;50.534;8.500;2022-07-29T21:25:46;20.4;99.9
53675;DHT22;39574;50.534;8.500;2022-07-29T21:31:00;20.4;99.9
53675;DHT22;39574;50.534;8.500;2022-07-29T21:36:01;20.3;99.9
53675;DHT22;39574;50.534;8.500;2022-07-29T21:45:29;20.2;99.9
53675;DHT22;39574;50.534;8.500;2022-07-29T21:50:38;20.2;99.9
53675;DHT22;39574;50.534;8.500;2022-07-29T21:55:41;20.1;99.9
53675;DHT22;39574;50.534;8.500;2022-07-29T22:00:54;20.1;99.9
53675;DHT22;39574;50.534;8.500;2022-07-29T22:05:55;20.1;99.9
53675;DHT22;39574;50.534;8.500;2022-07-29T22:15:22;20.0;99.9
53675;DHT22;39574;50.534;8.500;2022-07-29T22:20:24;19.9;99.9
53675;DHT22;39574;50.534;8.500;2022-07-29T22:25:25;19.8;99.9
53675;DHT22;39574;50.534;8.500;2022-07-29T22:30:37;19.7;99.9
53675;DHT22;39574;50.534;8.500;2022-07-29T22:35:39;19.6;99.9
53675;DHT22;39574;50.534;8.500;2022-07-29T22:40:54;19.5;99.9
53675;DHT22;39574;50.534;8.500;2022-07-29T22:50:20;19.4;99.9
53675;DHT22;39574;50.534;8.500;2022-07-29T22:55:35;19.4;99.9
53675;DHT22;39574;50.534;8.500;2022-07-29T23:00:48;19.4;99.9
53675;DHT22;39574;50.534;8.500;2022-07-29T23:10:18;19.4;99.9
53675;DHT22;39574;50.534;8.500;2022-07-29T23:15:29;19.4;99.9
53675;DHT22;39574;50.534;8.500;2022-07-29T23:20:29;19.3;99.9
53675;DHT22;39574;50.534;8.500;2022-07-29T23:25:31;19.1;99.9
53675;DHT22;39574;50.534;8.500;2022-07-29T23:30:44;19.1;99.9
53675;DHT22;39574;50.534;8.500;2022-07-29T23:40:25;19.0;99.9
53675;DHT22;39574;50.534;8.500;2022-07-29T23:45:30;18.8;99.9
53675;DHT22;39574;50.534;8.500;2022-07-29T23:50:39;18.8;99.9
53675;DHT22;39574;50.534;8.500;2022-07-29T23:55:41;18.7;99.9
